Estación Meteorológica Peña el Pijo (Robertgarden) [ 09/18/21 11:04:36 CEST ]

Fecha Hora Presion(HPa) Temp (°C) Humedad % Rocio (°C) Viento ( m/s) Direccion Lluvia 1Hora(mm) Lluvia 24H(mm) LLuvia Total(mm)
2021-Apr-18 01:09:24 1007.600 3.6 68 -1.8 - N     89.61
2021-Apr-18 02:09:42 1007.400 3.5 67 -2.1 - N     89.61
2021-Apr-18 03:09:43 1006.900 2.9 70 -2.0 - N     89.61
2021-Apr-18 04:09:59 1006.800 2.7 68 -2.6 - N     89.61
2021-Apr-18 05:09:44 1006.400 1.8 75 -2.2 - N     89.61
2021-Apr-18 06:09:41 1006.500 1.3 76 -2.5 - N     89.61
2021-Apr-18 07:09:47 1007.000 1.8 74 -2.4 - N     89.61
2021-Apr-18 08:09:27 1007.100 1.3 78 -2.2 - N     89.61
2021-Apr-18 09:09:24 1007.400 11.9 48 1.2 - N     89.61
2021-Apr-18 10:09:18 1007.600 18.2 31 0.8 - N     89.61
2021-Apr-18 11:09:31 1007.900 18.6 28 -0.4 - N     89.61
2021-Apr-18 12:09:39 1008.100 17.6 26 -2.3 - N     89.61
2021-Apr-18 13:09:40 1008.200 19.6 24 -1.8 - N     89.61
2021-Apr-18 14:09:35 1008.300 19.6 23 -2.3 - N     89.61
2021-Apr-18 15:09:28 1008.300 20.1 23 -1.9 - N     89.61
2021-Apr-18 16:09:41 1008.100 19.7 23 -2.2 - N     89.61
2021-Apr-18 17:09:23 1008.000 19.9 24 -1.5 - N     89.61
2021-Apr-18 18:09:25 1008.400 20.8 22 -1.8 - N     89.61
2021-Apr-18 19:09:34 1008.900 17.2 26 -2.7 - N     89.61
2021-Apr-18 20:09:21 1009.300 13.8 30 -3.5 - N     89.61
2021-Apr-18 21:09:59 1009.800 10.8 42 -1.7 - N     89.61
2021-Apr-18 22:09:49 1010.400 9.4 49 -0.8 - N     89.61
2021-Apr-18 23:09:35 1010.900 8.8 53 -0.3 - N     89.61

Temperatura Máxima:20°    Temperatura Mínima:
Presión Máxima:1010.900 Hpa    Presión Mínima:1006.400 Hpa


Volver